Paphos, Cyprus
Current Conditions -  °F | °C
As of 8:00 AM on Saturday 20 Dec 2014 (Local Time) from LCPH Reporting Station
Few Clouds Few Clouds  
Wind Chill: 52°   Ceiling: Unl
Heat Index: 52°   Visibility: 6mi
Dew Point: 46°   Wind: 9mph
Humidity: 82%   Direction: 20°NNE
Pressure: 30.09"   Gusts: NA
Location:  34.77°N, 32.4°E
Report Text: LCPH 200500Z 02008KT 9999 FEW030CB 11/08 Q1019
Loading
Personal Weather Stations






























Interactive Weather Map New forecast layout! Learn more

10-Day Weather Forecast

Advertisements
Track Severe Weather on mobile